Time;durP1;ratioP1;P1;durP2;ratioP2;P2;SDS_P1;SDS_P2;PMS_P1;PMS_P2;Temp;Humidity;BMP_temperature;BMP_pressure;BME280_temperature;BME280_humidity;BME280_pressure;Samples;Min_cycle;Max_cycle;Signal;HPM_P1;HPM_P2
2023/05/31 00:02:16;;;;;;;10.68;3.60;;;;;;;10.60;100.00;102436.00;6221043;23;20008;-77
2023/05/31 00:04:41;;;;;;;4.95;3.22;;;;;;;10.74;100.00;102430.22;6195974;23;20012;-78
2023/05/31 00:07:07;;;;;;;11.93;3.53;;;;;;;10.83;100.00;102432.13;6195876;23;20386;-79
2023/05/31 00:09:33;;;;;;;2.33;1.70;;;;;;;10.83;100.00;102432.13;6220873;23;20074;-78
2023/05/31 00:11:59;;;;;;;5.20;2.53;;;;;;;10.89;100.00;102431.56;6220428;23;20421;-78
2023/05/31 00:14:25;;;;;;;9.05;3.53;;;;;;;11.02;100.00;102425.94;6195690;23;20087;-78
2023/05/31 00:16:50;;;;;;;6.35;3.33;;;;;;;11.24;100.00;102424.84;6195443;23;20007;-78
2023/05/31 00:19:16;;;;;;;9.18;3.97;;;;;;;11.36;100.00;102429.13;6247308;22;20015;-78
2023/05/31 00:21:44;;;;;;;8.15;3.20;;;;;;;11.40;100.00;102427.84;6195681;23;20012;-78
2023/05/31 00:24:09;;;;;;;5.50;2.85;;;;;;;11.34;100.00;102420.31;6245864;23;20371;-79
2023/05/31 00:26:35;;;;;;;8.80;3.17;;;;;;;11.14;100.00;102423.97;6195726;23;20063;-79
2023/05/31 00:29:01;;;;;;;7.75;3.22;;;;;;;10.97;100.00;102433.56;6195680;23;20413;-78
2023/05/31 00:31:26;;;;;;;6.78;4.13;;;;;;;10.85;100.00;102421.22;6195915;23;20015;-78
2023/05/31 00:33:52;;;;;;;8.70;3.45;;;;;;;10.83;100.00;102418.66;6195612;23;20038;-79
2023/05/31 00:36:18;;;;;;;6.55;3.30;;;;;;;10.89;100.00;102425.34;6220643;23;20332;-78
2023/05/31 00:38:43;;;;;;;3.58;1.83;;;;;;;11.03;100.00;102422.25;6195575;23;20000;-79
2023/05/31 00:41:10;;;;;;;7.68;3.05;;;;;;;11.25;100.00;102423.88;6194975;23;20008;-78
2023/05/31 00:43:35;;;;;;;7.38;3.65;;;;;;;11.31;100.00;102417.91;6195521;23;20008;-78
2023/05/31 00:46:01;;;;;;;8.35;3.40;;;;;;;11.23;100.00;102432.06;6195594;23;20336;-78
2023/05/31 00:48:28;;;;;;;6.38;3.22;;;;;;;10.92;100.00;102419.69;6220598;23;20027;-78
2023/05/31 00:50:54;;;;;;;10.27;3.60;;;;;;;10.80;100.00;102427.03;6195449;23;20318;-78
2023/05/31 00:53:20;;;;;;;7.25;2.63;;;;;;;10.57;100.00;102420.97;6195478;23;20048;-78
2023/05/31 00:55:45;;;;;;;8.15;3.03;;;;;;;10.44;100.00;102423.88;6195517;23;20008;-77
2023/05/31 00:58:11;;;;;;;5.57;3.13;;;;;;;10.34;100.00;102420.28;6195517;23;20000;-78
2023/05/31 01:00:37;;;;;;;7.70;2.80;;;;;;;10.22;100.00;102424.03;6170333;23;20058;-78
2023/05/31 01:03:03;;;;;;;6.85;3.28;;;;;;;10.06;100.00;102413.75;6195408;23;20015;-78
2023/05/31 01:05:29;;;;;;;5.30;2.72;;;;;;;9.91;100.00;102415.91;6195328;23;20008;-77
2023/05/31 01:07:55;;;;;;;7.25;3.40;;;;;;;9.69;100.00;102409.66;6195196;23;20051;-78
2023/05/31 01:10:20;;;;;;;7.30;3.22;;;;;;;9.53;100.00;102406.56;6220498;23;20004;-78
2023/05/31 01:13:11;;;;;;;8.50;3.10;;;;;;;9.51;100.00;102421.13;6195246;23;20083;-78
2023/05/31 01:15:46;;;;;;;4.45;3.13;;;;;;;9.32;100.00;102406.53;6195327;23;20459;-76
2023/05/31 01:18:24;;;;;;;4.03;2.97;;;;;;;9.21;100.00;102403.91;6195321;23;20439;-77
2023/05/31 01:20:51;;;;;;;9.80;3.03;;;;;;;9.16;100.00;102406.94;6245532;23;20448;-77
2023/05/31 01:24:00;;;;;;;7.05;2.75;;;;;;;9.13;100.00;102412.56;6245519;23;20004;-78
2023/05/31 01:26:48;;;;;;;7.40;3.13;;;;;;;8.86;100.00;102378.09;6245220;23;20094;-77
2023/05/31 01:29:18;;;;;;;7.30;3.17;;;;;;;8.91;100.00;102404.56;6220905;23;20011;-79
2023/05/31 01:31:45;;;;;;;7.40;3.10;;;;;;;8.86;100.00;102406.75;6195469;23;20058;-77
2023/05/31 01:34:11;;;;;;;8.50;3.15;;;;;;;8.84;100.00;102412.25;6195232;23;20008;-78
2023/05/31 01:36:37;;;;;;;9.00;3.13;;;;;;;8.75;100.00;102411.16;6194984;23;20371;-78
2023/05/31 01:39:03;;;;;;;9.63;3.30;;;;;;;8.79;100.00;102409.94;6194994;23;20011;-77
2023/05/31 01:41:31;;;;;;;8.02;3.15;;;;;;;8.74;100.00;102411.28;6170421;23;20012;-78
2023/05/31 01:43:57;;;;;;;6.00;3.35;;;;;;;8.73;100.00;102404.22;6170503;23;20559;-77
2023/05/31 01:46:23;;;;;;;8.68;3.35;;;;;;;8.69;100.00;102408.13;6219776;23;20032;-77
2023/05/31 01:48:49;;;;;;;9.45;4.07;;;;;;;8.65;100.00;102410.19;6194931;23;20420;-78
2023/05/31 01:51:15;;;;;;;7.40;3.28;;;;;;;8.51;100.00;102405.94;6194885;23;20004;-78
2023/05/31 01:53:42;;;;;;;5.85;3.25;;;;;;;8.43;100.00;102408.38;6194820;23;20042;-78
2023/05/31 01:56:08;;;;;;;6.15;2.85;;;;;;;8.43;100.00;102413.72;6219653;23;20035;-77
2023/05/31 01:58:37;;;;;;;7.63;3.20;;;;;;;8.40;100.00;102424.69;6194850;23;20015;-78
2023/05/31 02:01:02;;;;;;;6.22;3.10;;;;;;;8.34;100.00;102414.44;6244935;23;20061;-78
2023/05/31 02:03:28;;;;;;;8.02;3.38;;;;;;;8.35;100.00;102413.44;6194824;23;20012;-78
2023/05/31 02:05:55;;;;;;;5.97;3.10;;;;;;;8.37;100.00;102412.34;6195027;23;20004;-79
2023/05/31 02:08:22;;;;;;;7.38;3.60;;;;;;;8.32;100.00;102411.00;6219977;23;20004;-78
2023/05/31 02:10:47;;;;;;;7.25;3.55;;;;;;;8.29;100.00;102417.47;6244747;23;20412;-77
2023/05/31 02:13:13;;;;;;;11.55;4.07;;;;;;;8.18;100.00;102414.78;6194653;23;20016;-77
2023/05/31 02:15:41;;;;;;;7.15;3.45;;;;;;;8.22;100.00;102405.50;6194776;23;20012;-78
2023/05/31 02:18:07;;;;;;;9.05;2.97;;;;;;;8.27;100.00;102408.69;6195130;23;20011;-78
2023/05/31 02:20:34;;;;;;;7.60;4.05;;;;;;;8.31;100.00;102412.84;6219838;23;20436;-78
2023/05/31 02:23:00;;;;;;;8.27;3.25;;;;;;;8.03;100.00;102378.47;6194755;23;20417;-78
2023/05/31 02:25:25;;;;;;;8.15;3.67;;;;;;;8.15;100.00;102401.63;6245030;23;20003;-78
2023/05/31 02:27:51;;;;;;;9.52;4.93;;;;;;;8.15;100.00;102407.00;6194530;23;20087;-78
2023/05/31 02:30:17;;;;;;;7.95;3.55;;;;;;;8.10;100.00;102417.22;6194561;23;20425;-78
2023/05/31 02:32:43;;;;;;;7.05;3.40;;;;;;;8.00;100.00;102411.69;6194730;23;20000;-77
2023/05/31 02:35:10;;;;;;;6.68;3.20;;;;;;;7.95;100.00;102413.03;6194704;23;20012;-77
2023/05/31 02:37:37;;;;;;;6.50;3.03;;;;;;;7.97;100.00;102419.97;6219784;23;20031;-77
2023/05/31 02:40:10;;;;;;;7.45;4.00;;;;;;;8.05;100.00;102414.88;6169896;23;20015;-78
2023/05/31 02:42:37;;;;;;;12.15;4.15;;;;;;;8.11;100.00;102424.25;6220687;23;20027;-78
2023/05/31 02:45:03;;;;;;;8.82;3.45;;;;;;;8.09;100.00;102421.69;6194635;23;20004;-78
2023/05/31 02:47:29;;;;;;;9.07;3.80;;;;;;;8.06;100.00;102419.25;6194230;23;20012;-78
2023/05/31 02:49:56;;;;;;;7.20;3.47;;;;;;;7.98;100.00;102424.34;6219708;23;20066;-77
2023/05/31 02:52:23;;;;;;;6.95;2.95;;;;;;;7.88;100.00;102421.50;6194536;23;20016;-78
2023/05/31 02:54:49;;;;;;;11.15;3.92;;;;;;;7.83;100.00;102420.16;6194926;23;20012;-78
2023/05/31 02:57:15;;;;;;;8.82;3.25;;;;;;;7.77;100.00;102415.28;6194584;23;20004;-78
2023/05/31 02:59:43;;;;;;;8.48;4.35;;;;;;;7.83;100.00;102426.41;6194234;23;20107;-78
2023/05/31 03:02:09;;;;;;;6.78;3.22;;;;;;;7.78;100.00;102428.56;6219766;23;20004;-78
2023/05/31 03:04:35;;;;;;;8.98;3.65;;;;;;;7.79;100.00;102430.25;6195230;23;20310;-78
2023/05/31 03:07:01;;;;;;;7.88;3.78;;;;;;;7.82;100.00;102430.03;6171738;23;20009;-78
2023/05/31 03:09:26;;;;;;;7.63;3.58;;;;;;;7.85;100.00;102432.47;6196479;23;20363;-78
2023/05/31 03:11:52;;;;;;;8.50;3.35;;;;;;;7.93;100.00;102431.88;6196481;23;20324;-78
2023/05/31 03:14:18;;;;;;;8.80;3.63;;;;;;;7.96;100.00;102430.78;6196469;23;20008;-78
2023/05/31 03:16:45;;;;;;;6.28;3.83;;;;;;;8.00;100.00;102429.59;6196420;23;20008;-79
2023/05/31 03:19:12;;;;;;;6.18;3.20;;;;;;;8.01;100.00;102431.28;6196290;23;20004;-78
2023/05/31 03:21:39;;;;;;;11.90;3.67;;;;;;;8.03;100.00;102437.41;6246343;23;20050;-78
2023/05/31 03:24:05;;;;;;;6.95;3.47;;;;;;;7.88;100.00;102429.53;6196237;23;20059;-78
2023/05/31 03:26:31;;;;;;;6.95;3.92;;;;;;;7.79;100.00;102440.97;6196147;23;20420;-77
2023/05/31 03:28:56;;;;;;;8.88;3.90;;;;;;;7.64;100.00;102440.28;6196234;23;20034;-78
2023/05/31 03:31:22;;;;;;;9.30;3.95;;;;;;;7.60;100.00;102451.38;6196246;23;20416;-79
2023/05/31 03:33:50;;;;;;;8.43;3.78;;;;;;;7.55;100.00;102450.88;6221196;23;20012;-78
2023/05/31 03:36:16;;;;;;;7.95;3.83;;;;;;;7.41;100.00;102435.81;6246327;23;20034;-78
2023/05/31 03:38:41;;;;;;;6.97;3.15;;;;;;;7.39;100.00;102449.31;6246366;23;20005;-78
2023/05/31 03:41:07;;;;;;;6.70;3.28;;;;;;;7.35;100.00;102439.78;6196243;23;20004;-76
2023/05/31 03:43:33;;;;;;;13.13;4.25;;;;;;;7.41;100.00;102443.84;6196186;23;20141;-78
2023/05/31 03:46:01;;;;;;;11.23;4.00;;;;;;;7.46;100.00;102442.56;6195995;23;20004;-79
2023/05/31 03:48:27;;;;;;;6.40;3.30;;;;;;;7.46;100.00;102437.19;6196823;23;20091;-79
2023/05/31 03:50:53;;;;;;;8.32;3.20;;;;;;;7.54;100.00;102446.47;6246445;23;20016;-78
2023/05/31 03:53:19;;;;;;;7.97;3.20;;;;;;;7.51;100.00;102431.47;6196125;23;20387;-78
2023/05/31 03:55:45;;;;;;;5.32;3.97;;;;;;;7.57;100.00;102438.19;6246011;23;20314;-79
2023/05/31 03:58:10;;;;;;;8.98;3.33;;;;;;;7.40;100.00;102408.19;6221047;23;20008;-78
2023/05/31 04:00:36;;;;;;;8.38;3.53;;;;;;;7.48;100.00;102442.41;6247874;22;20412;-78
2023/05/31 04:03:02;;;;;;;10.43;3.67;;;;;;;7.31;100.00;102438.34;6146584;23;20015;-79
2023/05/31 04:05:28;;;;;;;7.70;3.53;;;;;;;7.29;100.00;102439.41;6170965;23;20008;-78
2023/05/31 04:07:53;;;;;;;6.45;3.47;;;;;;;7.27;100.00;102434.16;6170898;23;20005;-78
2023/05/31 04:10:19;;;;;;;5.65;2.85;;;;;;;7.34;100.00;102437.25;6171066;23;20019;-78
2023/05/31 04:12:45;;;;;;;7.07;3.80;;;;;;;7.37;100.00;102443.22;6170997;23;20428;-78
2023/05/31 04:15:10;;;;;;;6.88;3.42;;;;;;;7.39;100.00;102441.28;6170646;23;20399;-79
2023/05/31 04:17:36;;;;;;;9.15;3.45;;;;;;;7.38;100.00;102444.06;6170772;23;20004;-78
2023/05/31 04:20:07;;;;;;;6.47;3.33;;;;;;;7.32;100.00;102440.03;6170927;23;20066;-79
2023/05/31 04:22:36;;;;;;;5.00;3.30;;;;;;;7.20;100.00;102427.56;6221676;23;20480;-78
2023/05/31 04:25:02;;;;;;;8.80;3.78;;;;;;;7.34;100.00;102447.94;6170787;23;20044;-80
2023/05/31 04:27:30;;;;;;;5.93;3.15;;;;;;;7.25;100.00;102436.09;6195322;23;20437;-80
2023/05/31 04:29:57;;;;;;;4.63;2.78;;;;;;;7.24;100.00;102439.75;6170986;23;20432;-79
2023/05/31 04:32:24;;;;;;;5.45;2.72;;;;;;;7.16;100.00;102437.63;6221248;23;20000;-78
2023/05/31 04:34:57;;;;;;;9.95;3.72;;;;;;;7.08;100.00;102429.31;6195372;23;20476;-79
2023/05/31 04:37:29;;;;;;;6.90;3.40;;;;;;;7.18;100.00;102445.56;6222191;23;20008;-79
2023/05/31 04:39:56;;;;;;;10.40;3.83;;;;;;;7.21;100.00;102445.31;6170797;23;20014;-79
2023/05/31 04:42:24;;;;;;;6.38;3.00;;;;;;;7.24;100.00;102447.75;6171436;23;20055;-78
2023/05/31 04:44:51;;;;;;;8.35;3.80;;;;;;;7.23;100.00;102430.03;6196681;23;20012;-77
2023/05/31 04:47:19;;;;;;;7.15;3.97;;;;;;;7.38;100.00;102441.38;6220732;23;20429;-78
2023/05/31 04:49:45;;;;;;;9.95;3.92;;;;;;;7.42;100.00;102442.88;6178034;23;20012;-79
2023/05/31 04:52:14;;;;;;;8.52;4.03;;;;;;;7.45;100.00;102445.31;6208573;23;20015;-78
2023/05/31 04:54:40;;;;;;;6.60;3.65;;;;;;;7.48;100.00;102442.41;6221949;23;20401;-78
2023/05/31 04:57:07;;;;;;;12.50;4.03;;;;;;;7.56;100.00;102434.66;6195547;23;20322;-78
2023/05/31 04:59:32;;;;;;;10.45;4.00;;;;;;;7.80;100.00;102444.50;6170639;23;20004;-78
2023/05/31 05:01:58;;;;;;;7.82;3.95;;;;;;;7.93;100.00;102442.59;6195434;23;20014;-78
2023/05/31 05:04:24;;;;;;;12.18;4.97;;;;;;;8.10;100.00;102433.28;6220502;23;20018;-79
2023/05/31 05:06:49;;;;;;;9.75;4.43;;;;;;;8.29;100.00;102440.75;6195044;23;20082;-78
2023/05/31 05:09:15;;;;;;;8.30;4.18;;;;;;;8.69;100.00;102433.09;6195418;23;20004;-78
2023/05/31 05:11:41;;;;;;;10.10;4.35;;;;;;;9.53;100.00;102441.50;6195346;23;20435;-78
2023/05/31 05:14:06;;;;;;;6.47;3.60;;;;;;;10.29;100.00;102447.59;6195340;23;20399;-77
2023/05/31 05:16:32;;;;;;;10.02;4.30;;;;;;;11.06;100.00;102442.66;6220380;23;20015;-78
2023/05/31 05:18:58;;;;;;;12.10;4.53;;;;;;;11.48;100.00;102437.91;6195721;23;20062;-78
2023/05/31 05:21:23;;;;;;;8.82;4.35;;;;;;;11.42;100.00;102430.41;6195258;23;20336;-78
2023/05/31 05:23:49;;;;;;;10.73;4.15;;;;;;;11.90;100.00;102436.81;6220291;23;20019;-79
2023/05/31 05:26:15;;;;;;;7.03;3.83;;;;;;;12.56;100.00;102433.25;6195125;23;20012;-78
2023/05/31 05:28:41;;;;;;;9.90;3.92;;;;;;;13.21;100.00;102428.66;6220184;23;20495;-79
2023/05/31 05:31:07;;;;;;;9.82;4.05;;;;;;;13.48;100.00;102425.06;6195318;23;20028;-78
2023/05/31 05:33:33;;;;;;;8.73;3.47;;;;;;;12.81;100.00;102420.91;6220251;23;20341;-79
2023/05/31 05:35:59;;;;;;;9.63;4.32;;;;;;;12.29;100.00;102426.81;6245169;23;20420;-77
2023/05/31 05:38:25;;;;;;;7.40;3.58;;;;;;;12.07;100.00;102433.41;6195128;23;20018;-78
2023/05/31 05:40:51;;;;;;;5.53;2.78;;;;;;;12.24;100.00;102429.09;6220068;23;20004;-78
2023/05/31 05:43:16;;;;;;;9.38;3.90;;;;;;;13.28;100.00;102431.59;6195083;23;20140;-79
2023/05/31 05:45:42;;;;;;;6.38;3.55;;;;;;;14.23;100.00;102421.94;6194790;23;19996;-77
2023/05/31 05:48:08;;;;;;;4.80;3.40;;;;;;;15.02;100.00;102428.97;6194922;23;20011;-78
2023/05/31 05:50:33;;;;;;;5.80;2.40;;;;;;;15.66;100.00;102439.25;6220035;23;20065;-78
2023/05/31 05:52:59;;;;;;;3.92;3.17;;;;;;;16.19;97.94;102436.03;6195981;23;20022;-78
2023/05/31 05:55:25;;;;;;;3.95;2.15;;;;;;;16.60;93.86;102430.50;6251912;23;20000;-78
2023/05/31 05:57:51;;;;;;;9.05;3.40;;;;;;;17.00;92.22;102422.41;6195717;23;20008;-79
2023/05/31 06:00:23;;;;;;;7.40;3.20;;;;;;;17.43;89.13;102425.53;6219825;23;20008;-79
2023/05/31 06:02:52;;;;;;;11.05;3.83;;;;;;;17.90;83.91;102425.38;6196766;23;20012;-79
2023/05/31 06:05:21;;;;;;;3.83;2.50;;;;;;;18.19;80.57;102430.03;6244713;23;20058;-78
2023/05/31 06:07:47;;;;;;;8.57;3.28;;;;;;;18.40;77.09;102428.44;6220332;23;20039;-79
2023/05/31 06:10:13;;;;;;;5.00;3.05;;;;;;;18.61;74.25;102428.53;6194615;23;20054;-77
2023/05/31 06:12:38;;;;;;;8.73;3.38;;;;;;;18.50;75.91;102392.75;6219619;23;20011;-80
2023/05/31 06:15:05;;;;;;;8.40;3.60;;;;;;;18.92;73.08;102424.78;6194733;23;20014;-77
2023/05/31 06:17:31;;;;;;;5.28;2.97;;;;;;;19.13;72.86;102421.25;6245039;23;20000;-77
2023/05/31 06:19:56;;;;;;;6.88;3.13;;;;;;;19.45;70.22;102410.88;6194610;23;20050;-78
2023/05/31 06:22:22;;;;;;;7.05;4.03;;;;;;;19.69;69.73;102407.81;6194258;23;20008;-78
2023/05/31 06:24:48;;;;;;;9.63;3.70;;;;;;;20.04;65.80;102412.50;6194591;23;20362;-79
2023/05/31 06:27:14;;;;;;;7.82;3.50;;;;;;;20.18;66.92;102417.84;6194498;23;20443;-78
2023/05/31 06:29:40;;;;;;;6.18;3.38;;;;;;;20.44;64.48;102408.16;6194770;23;20493;-80
2023/05/31 06:32:06;;;;;;;6.10;3.60;;;;;;;20.70;63.65;102407.47;6194883;23;20040;-79
2023/05/31 06:34:32;;;;;;;8.32;3.47;;;;;;;21.03;62.64;102391.19;6219581;23;20008;-79
2023/05/31 06:37:00;;;;;;;6.10;3.10;;;;;;;21.47;58.91;102400.78;6194801;23;20340;-80
2023/05/31 06:39:26;;;;;;;8.73;3.10;;;;;;;21.72;56.88;102395.56;6219664;23;19996;-79
2023/05/31 06:41:52;;;;;;;6.40;3.88;;;;;;;21.79;56.06;102406.50;6244436;23;20004;-80
2023/05/31 06:44:17;;;;;;;6.72;3.28;;;;;;;21.96;54.26;102398.69;6194572;23;20336;-80
2023/05/31 06:46:43;;;;;;;9.82;3.72;;;;;;;22.07;53.27;102392.59;6194363;23;20329;-80
2023/05/31 06:49:09;;;;;;;5.63;3.28;;;;;;;22.23;54.64;102391.31;6219682;23;20008;-80
2023/05/31 06:51:35;;;;;;;7.97;3.13;;;;;;;22.65;52.61;102386.38;6194412;23;20433;-79
2023/05/31 06:54:01;;;;;;;6.68;3.33;;;;;;;22.93;49.14;102388.75;6194589;23;20031;-79
2023/05/31 06:56:28;;;;;;;6.90;2.95;;;;;;;23.11;47.52;102385.31;6244958;23;20008;-79
2023/05/31 06:58:54;;;;;;;6.18;3.00;;;;;;;23.30;47.70;102388.16;6219731;23;20440;-79
2023/05/31 07:01:19;;;;;;;3.55;2.45;;;;;;;23.63;45.53;102393.38;6219641;23;20032;-78
2023/05/31 07:03:45;;;;;;;7.63;3.20;;;;;;;23.79;44.81;102389.28;6194560;23;20134;-78
2023/05/31 07:06:11;;;;;;;4.55;2.63;;;;;;;24.02;44.09;102392.22;6194433;23;20421;-78
2023/05/31 07:08:36;;;;;;;7.05;3.33;;;;;;;24.21;43.87;102390.34;6219489;23;20400;-79
2023/05/31 07:11:02;;;;;;;8.50;3.03;;;;;;;24.48;43.33;102396.44;6194522;23;20014;-79
2023/05/31 07:13:28;;;;;;;6.22;3.20;;;;;;;24.74;42.57;102383.41;6194440;23;20004;-78
2023/05/31 07:15:53;;;;;;;6.75;3.15;;;;;;;24.86;41.48;102391.75;6219434;23;20004;-79
2023/05/31 07:18:19;;;;;;;7.35;2.88;;;;;;;24.76;41.08;102384.88;6194420;23;20030;-77
2023/05/31 07:20:47;;;;;;;5.78;2.70;;;;;;;24.74;40.25;102387.03;6194447;23;20329;-78
2023/05/31 07:23:13;;;;;;;6.57;3.45;;;;;;;24.80;41.53;102390.78;6219437;23;20000;-78
2023/05/31 07:25:38;;;;;;;5.85;2.80;;;;;;;25.07;41.50;102388.50;6194488;23;20014;-78
2023/05/31 07:28:04;;;;;;;5.20;2.95;;;;;;;25.45;40.84;102357.84;6219380;23;20050;-78
2023/05/31 07:30:30;;;;;;;5.55;3.13;;;;;;;26.16;39.84;102379.97;6219593;23;20383;-79
2023/05/31 07:32:56;;;;;;;5.32;2.92;;;;;;;26.35;39.12;102366.88;6194368;23;20087;-78
2023/05/31 07:35:22;;;;;;;5.65;2.90;;;;;;;26.58;39.61;102374.28;6194316;23;20078;-78
2023/05/31 07:37:47;;;;;;;11.27;2.92;;;;;;;26.89;38.71;102375.75;6194408;23;20016;-78
2023/05/31 07:40:15;;;;;;;5.90;2.60;;;;;;;26.97;37.06;102371.75;6219133;23;20432;-78
2023/05/31 07:42:43;;;;;;;6.28;3.00;;;;;;;26.64;37.24;102373.31;6194840;23;20008;-78
2023/05/31 07:45:09;;;;;;;5.18;3.33;;;;;;;26.43;37.80;102368.41;6220008;23;20047;-78
2023/05/31 07:47:35;;;;;;;6.03;3.28;;;;;;;26.41;37.66;102367.81;6194178;23;20028;-78
2023/05/31 07:50:01;;;;;;;8.05;3.45;;;;;;;26.51;39.17;102362.50;6194721;23;20004;-78
2023/05/31 07:52:27;;;;;;;6.57;2.80;;;;;;;26.90;38.34;102360.84;6246364;23;20305;-79
2023/05/31 07:54:53;;;;;;;6.60;3.00;;;;;;;27.15;38.09;102352.22;6221138;23;20428;-79
2023/05/31 07:57:19;;;;;;;7.63;3.40;;;;;;;27.39;37.71;102357.63;6246190;23;20030;-78
2023/05/31 07:59:45;;;;;;;4.43;2.70;;;;;;;27.51;36.98;102366.66;6195728;23;20038;-78
2023/05/31 08:02:10;;;;;;;7.95;2.90;;;;;;;27.37;37.82;102357.88;6196005;23;20008;-78
2023/05/31 08:04:36;;;;;;;8.07;3.45;;;;;;;27.55;37.23;102370.63;6220865;23;20352;-78
2023/05/31 08:07:02;;;;;;;4.50;2.63;;;;;;;27.87;36.80;102366.44;6195806;23;20015;-78
2023/05/31 08:09:28;;;;;;;8.15;3.35;;;;;;;27.99;36.31;102356.94;6195956;23;20443;-78
2023/05/31 08:11:54;;;;;;;6.18;3.08;;;;;;;27.92;35.83;102359.06;6195742;23;20000;-78
2023/05/31 08:14:20;;;;;;;6.75;2.70;;;;;;;27.95;36.01;102358.56;6195773;23;20011;-78
2023/05/31 08:16:49;;;;;;;8.55;2.97;;;;;;;27.93;36.06;102349.66;6196422;23;20018;-78
2023/05/31 08:19:15;;;;;;;8.10;3.83;;;;;;;28.23;36.20;102351.19;6221299;23;20087;-77
2023/05/31 08:21:40;;;;;;;9.25;3.08;;;;;;;28.66;34.72;102350.38;6220685;23;20046;-79
2023/05/31 08:24:06;;;;;;;6.63;3.70;;;;;;;29.02;35.33;102347.16;6196044;23;20345;-88
2023/05/31 08:26:33;;;;;;;7.35;3.67;;;;;;;29.47;34.36;102351.47;6220978;23;20031;-90
2023/05/31 08:28:59;;;;;;;4.38;2.67;;;;;;;29.75;32.36;102351.16;6243889;23;20000;-79
2023/05/31 08:31:24;;;;;;;8.13;3.47;;;;;;;29.32;33.13;102352.16;6247340;22;20574;-78
2023/05/31 08:33:55;;;;;;;5.63;3.63;;;;;;;28.92;33.97;102343.19;6220208;23;20000;-77
2023/05/31 08:36:21;;;;;;;8.05;3.35;;;;;;;28.65;34.94;102339.56;6245666;23;20364;-78
2023/05/31 08:38:49;;;;;;;7.90;3.83;;;;;;;28.92;33.60;102343.19;6220460;23;20000;-78
2023/05/31 08:41:15;;;;;;;5.53;3.15;;;;;;;28.92;33.91;102345.97;6246076;23;20000;-77
2023/05/31 08:43:41;;;;;;;8.07;3.70;;;;;;;28.76;34.27;102341.34;6220610;23;20011;-77
2023/05/31 08:46:07;;;;;;;9.15;3.65;;;;;;;29.15;33.59;102344.81;6220849;23;20083;-79
2023/05/31 08:49:01;;;;;;;5.15;2.75;;;;;;;29.15;33.20;102330.97;6245624;23;20074;-77
2023/05/31 08:51:27;;;;;;;7.57;3.72;;;;;;;29.44;34.42;102338.97;6195472;23;20001;-77
2023/05/31 08:53:55;;;;;;;7.70;4.18;;;;;;;29.86;33.02;102335.44;6220498;23;20012;-78
2023/05/31 08:56:21;;;;;;;9.13;3.90;;;;;;;30.22;32.63;102325.38;6195715;23;20008;-78
2023/05/31 08:58:50;;;;;;;10.07;3.92;;;;;;;30.73;31.51;102335.00;6220330;23;20007;-78
2023/05/31 09:01:18;;;;;;;8.25;3.42;;;;;;;30.91;30.41;102323.41;6219247;23;20091;-78
2023/05/31 09:03:44;;;;;;;6.53;2.85;;;;;;;30.68;31.13;102330.28;6219916;23;20032;-78
2023/05/31 09:06:10;;;;;;;7.88;3.35;;;;;;;30.24;30.32;102331.47;6195340;23;20093;-78
2023/05/31 09:08:37;;;;;;;7.72;3.92;;;;;;;30.32;32.10;102332.91;6245750;23;20000;-77
2023/05/31 09:11:03;;;;;;;7.40;3.15;;;;;;;30.68;31.12;102335.81;6170786;23;20012;-77
2023/05/31 09:13:29;;;;;;;6.93;3.45;;;;;;;30.91;31.55;102336.44;6195429;23;20043;-77
2023/05/31 09:15:55;;;;;;;7.43;3.30;;;;;;;31.27;30.08;102324.25;6246762;22;20000;-78
2023/05/31 09:18:23;;;;;;;9.15;3.60;;;;;;;30.80;29.79;102332.78;6219871;23;20058;-77
2023/05/31 09:20:49;;;;;;;6.95;3.20;;;;;;;30.66;31.83;102324.16;6220313;23;20099;-78
2023/05/31 09:23:17;;;;;;;7.93;3.63;;;;;;;31.19;31.14;102324.81;6220002;23;20011;-78
2023/05/31 09:25:51;;;;;;;6.00;3.60;;;;;;;31.62;29.95;102325.38;6195211;23;20109;-79
2023/05/31 09:28:18;;;;;;;6.25;3.17;;;;;;;32.16;28.82;102321.09;6171077;23;20505;-79
2023/05/31 09:30:43;;;;;;;9.90;3.55;;;;;;;32.36;28.85;102318.19;6195149;23;20087;-78
2023/05/31 09:33:10;;;;;;;6.70;3.22;;;;;;;32.82;28.14;102322.72;6195135;23;20090;-78
2023/05/31 09:35:36;;;;;;;8.43;3.58;;;;;;;32.66;26.71;102310.03;6245188;23;20004;-78
2023/05/31 09:38:06;;;;;;;7.93;3.72;;;;;;;32.32;29.14;102319.91;6194864;23;20091;-78
2023/05/31 09:40:32;;;;;;;8.07;3.72;;;;;;;32.35;28.68;102322.13;6195435;23;20008;-78
2023/05/31 09:42:58;;;;;;;9.02;3.30;;;;;;;32.59;28.17;102310.34;6245111;23;20004;-78
2023/05/31 09:45:24;;;;;;;6.15;3.30;;;;;;;32.28;27.72;102304.88;6245350;23;20015;-78
2023/05/31 09:47:50;;;;;;;7.00;2.55;;;;;;;32.09;27.29;102303.88;6245259;23;20007;-78
2023/05/31 09:50:17;;;;;;;4.65;3.05;;;;;;;31.54;27.97;102306.47;6244926;23;20004;-78
2023/05/31 09:52:44;;;;;;;7.50;3.15;;;;;;;31.46;27.42;102302.31;6219697;23;20004;-78
2023/05/31 09:55:11;;;;;;;8.15;3.58;;;;;;;30.90;27.65;102280.06;6245196;23;20091;-78
2023/05/31 09:57:41;;;;;;;4.97;2.72;;;;;;;30.96;26.84;102297.56;6169953;23;20043;-77
2023/05/31 10:02:44;;;;;;;8.07;3.33;;;;;;;30.40;28.14;102278.81;6221881;23;20078;-77
2023/05/31 10:05:14;;;;;;;5.70;2.75;;;;;;;30.46;28.83;102283.31;6244642;23;20107;-77
2023/05/31 10:07:40;;;;;;;6.78;2.75;;;;;;;30.72;28.35;102288.91;6193289;23;20095;-76
2023/05/31 10:10:07;;;;;;;3.28;2.60;;;;;;;31.03;27.97;102287.03;6245134;23;20012;-76
2023/05/31 10:12:37;;;;;;;5.75;3.03;;;;;;;30.61;27.30;102280.53;6194333;23;20444;-76
2023/05/31 10:15:08;;;;;;;4.32;2.40;;;;;;;30.35;27.54;102285.22;6244633;23;20031;-77
2023/05/31 10:17:38;;;;;;;5.67;2.97;;;;;;;30.40;27.71;102273.28;6195076;23;20085;-76
2023/05/31 10:20:07;;;;;;;5.63;2.97;;;;;;;30.72;26.67;102283.34;6169839;23;20299;-76
2023/05/31 10:22:36;;;;;;;4.57;2.88;;;;;;;30.77;26.91;102283.34;6195032;23;20054;-77
2023/05/31 10:25:04;;;;;;;5.85;2.92;;;;;;;30.73;26.46;102273.94;6169910;23;20070;-76
2023/05/31 10:27:38;;;;;;;5.07;2.90;;;;;;;30.87;27.31;102266.75;6219250;23;20000;-77
2023/05/31 10:30:04;;;;;;;5.55;2.92;;;;;;;31.47;26.47;102267.84;6244661;23;20050;-77
2023/05/31 10:32:46;;;;;;;5.00;2.67;;;;;;;31.42;26.10;102264.25;6194300;23;20012;-76
2023/05/31 10:35:11;;;;;;;3.30;2.27;;;;;;;31.47;25.42;102264.25;6244908;23;20421;-77
2023/05/31 10:37:44;;;;;;;4.15;2.67;;;;;;;31.53;25.92;102265.91;6194441;23;20004;-76
2023/05/31 10:40:13;;;;;;;;;;;;;;;31.47;25.25;102265.06;6245205;23;20020;-76
2023/05/31 10:43:19;;;;;;;4.43;2.78;;;;;;;31.62;26.26;102255.03;6219534;23;19907;-77
2023/05/31 10:45:48;;;;;;;7.78;3.50;;;;;;;31.74;28.14;102267.50;6051307;23;20498;-77
2023/05/31 10:48:21;;;;;;;9.27;3.63;;;;;;;32.37;27.49;102267.00;6176887;23;20015;-76
2023/05/31 10:50:55;;;;;;;5.22;3.10;;;;;;;32.82;26.78;102264.22;6244586;23;20127;-77
2023/05/31 10:53:21;;;;;;;5.80;3.10;;;;;;;33.07;26.93;102252.06;6244910;23;20098;-78
2023/05/31 10:55:47;;;;;;;5.80;3.70;;;;;;;33.20;27.81;102254.16;6218744;23;20440;-77
2023/05/31 10:58:30;;;;;;;4.72;3.83;;;;;;;33.59;26.77;102255.22;6191758;23;20091;-77
2023/05/31 11:00:57;;;;;;;6.50;3.80;;;;;;;33.72;27.45;102255.34;6217153;23;20015;-77
2023/05/31 11:03:24;;;;;;;5.43;3.90;;;;;;;33.70;26.94;102249.22;6219289;23;20010;-77
2023/05/31 11:05:57;;;;;;;7.68;4.30;;;;;;;33.61;27.48;102247.34;6169631;23;20102;-78
2023/05/31 11:08:23;;;;;;;4.20;2.97;;;;;;;33.34;25.32;102242.31;6219401;23;20000;-77
2023/05/31 11:10:49;;;;;;;8.65;3.88;;;;;;;32.94;27.04;102233.19;6194444;23;20004;-77
2023/05/31 11:14:05;;;;;;;6.82;4.38;;;;;;;33.32;28.30;102239.84;6219232;23;20007;-77
2023/05/31 11:16:32;;;;;;;6.00;3.70;;;;;;;33.57;28.24;102235.97;6206418;23;20062;-77
2023/05/31 11:19:12;;;;;;;6.07;4.22;;;;;;;33.73;26.66;102245.00;6244496;23;20051;-77
2023/05/31 11:21:47;;;;;;;4.70;2.63;;;;;;;33.47;26.59;102242.44;6194204;23;20455;-77
2023/05/31 11:24:26;;;;;;;7.03;2.90;;;;;;;33.16;28.35;102238.31;6244460;23;20428;-77
2023/05/31 11:26:53;;;;;;;8.13;3.90;;;;;;;32.91;28.65;102220.69;6245361;23;20028;-78
2023/05/31 11:29:19;;;;;;;7.13;4.20;;;;;;;33.35;27.98;102230.06;6221507;23;20054;-79